Hlavní strana
METAR-TAF:

METAR-TAF

Letiště :

Adrar, Alžírsko

zeměpisná šířka: 27-53N, zeměpisná délka: 000-17W, výška: 263 m

Aktuální stav počasí

Zpráva byla vytvořena před 29 minutami, v 03:00 UTC
Severovýchodní vítr 14 kt
Teplota 17°C
Vlhkost vzduchu 25%
Tlak 1011 hPa
Viditelnost 10 km a více
Žádná oblačnost pod 1500 m, nevyskytují se cumulonimby.

METAR: DAUA 040300Z 05014KT CAVOK 17/M03 Q1011

Čas: 04:29 (03:29 UTC)

Předpověď počasí

Zpráva byla vytvořena před 4 hodinami a 29 minutami, v 23:00 UTC
Předpověď platná od 04 v 00 UTC do 04 v 24 UTC
Severovýchodní vítr 12 kt
Viditelnost 10 km a více
Žádná oblačnost pod 1500 m, nevyskytují se cumulonimby.
Pravděpodobnost 30% :
Dočasný
od 04 v 00 UTC do 04 v 04 UTC
Viditelnost: 4000 m
zákal
Pravděpodobnost 30% :
Dočasný
od 04 v 07 UTC do 04 v 11 UTC
Východní vítr 15 kt s nárazy do 25 kt
Viditelnost: 4000 m
nízko zvířený písek

TAF: DAUA 032300Z 0400/0424 04012KT CAVOK PROB30 TEMPO 0400/0404 4000 HZ PROB30 TEMPO 0407/0411 08015G25KT 4000 DRSA

Stav a předpovědi počasí z více než 4 000 letišť (zprávy METAR a TAF).

Červené a žluté tečky na mapě představují dostupné meteorologické stanice.

Když kurzor umístíte na tečku, zobrazí se název stanice.

Pak kliknutím zobrazíte stav a předpověď počasí.

Chcete-li změnit mapu, kliknutím na zelené tlačítko se znaménkem +mapu přiblížíte, kliknutím na zelené tlačítko se znaménkem – mapu oddálíte a kliknutím na zelené šipky přejdete na sousední mapy.


METAR-TAF: